createdAt,value
2022-10-26T00:01:05.962Z,27.80
2022-10-26T00:03:34.104Z,26.40
2022-10-26T00:06:12.687Z,29.10
2022-10-26T00:08:39.937Z,27.00
2022-10-26T00:11:07.643Z,28.30
2022-10-26T00:13:34.906Z,26.80
2022-10-26T00:16:02.077Z,26.70
2022-10-26T00:18:28.985Z,26.90
2022-10-26T00:20:55.795Z,28.00
2022-10-26T00:23:22.565Z,27.30
2022-10-26T00:25:56.874Z,27.10
2022-10-26T00:28:23.822Z,26.10
2022-10-26T00:30:51.295Z,26.20
2022-10-26T00:33:18.357Z,25.70
2022-10-26T00:35:49.337Z,26.60
2022-10-26T00:38:16.147Z,26.00
2022-10-26T00:40:44.237Z,25.40
2022-10-26T00:43:21.377Z,24.30
2022-10-26T00:45:51.437Z,25.80
2022-10-26T00:48:35.430Z,27.80
2022-10-26T00:51:08.916Z,27.50
2022-10-26T00:53:36.035Z,27.10
2022-10-26T00:56:03.818Z,28.60
2022-10-26T00:58:31.903Z,29.20
2022-10-26T01:00:58.691Z,28.30
2022-10-26T01:03:27.851Z,27.80
2022-10-26T01:05:57.530Z,29.50
2022-10-26T01:08:25.421Z,27.20
2022-10-26T01:10:52.685Z,27.40
2022-10-26T01:13:20.216Z,27.50
2022-10-26T01:16:12.211Z,28.80
2022-10-26T01:18:44.833Z,28.20
2022-10-26T01:21:14.935Z,29.10
2022-10-26T01:23:50.351Z,28.30
2022-10-26T01:26:49.404Z,28.60
2022-10-26T01:29:44.416Z,27.70
2022-10-26T01:32:16.375Z,27.40
2022-10-26T01:35:02.693Z,28.80
2022-10-26T01:37:32.870Z,27.60
2022-10-26T01:40:09.268Z,26.30
2022-10-26T01:42:39.548Z,27.50
2022-10-26T01:45:10.195Z,28.90
2022-10-26T01:47:38.604Z,29.00
2022-10-26T01:50:07.160Z,28.90
2022-10-26T01:52:34.324Z,27.30
2022-10-26T01:55:06.027Z,28.40
2022-10-26T01:57:36.644Z,27.90
2022-10-26T02:00:09.220Z,27.80
2022-10-26T02:02:43.768Z,28.40
2022-10-26T02:05:16.349Z,28.30
2022-10-26T02:08:20.271Z,27.70
2022-10-26T02:11:01.181Z,28.00
2022-10-26T02:13:39.967Z,28.50
2022-10-26T02:16:34.370Z,26.50
2022-10-26T02:19:02.852Z,27.00
2022-10-26T02:21:38.301Z,27.10
2022-10-26T02:26:42.024Z,28.30
2022-10-26T02:29:12.255Z,27.10
2022-10-26T02:31:42.699Z,29.30
2022-10-26T02:34:13.491Z,28.90
2022-10-26T02:36:44.875Z,27.50
2022-10-26T02:39:14.005Z,28.20
2022-10-26T02:41:43.781Z,28.70
2022-10-26T02:44:23.237Z,28.10
2022-10-26T02:46:51.587Z,28.60
2022-10-26T02:49:19.056Z,28.20
2022-10-26T02:51:45.900Z,28.70
2022-10-26T02:54:15.459Z,27.70
2022-10-26T02:56:49.064Z,28.10
2022-10-26T02:59:16.884Z,28.70
2022-10-26T03:01:44.969Z,27.00
2022-10-26T03:04:11.824Z,26.70
2022-10-26T03:06:38.585Z,27.50
2022-10-26T03:09:05.457Z,27.50
2022-10-26T03:11:32.324Z,28.20
2022-10-26T03:13:59.156Z,26.90
2022-10-26T03:16:26.176Z,28.20
2022-10-26T03:18:52.990Z,28.10
2022-10-26T03:21:19.889Z,27.20
2022-10-26T03:23:47.861Z,27.50
2022-10-26T03:26:14.669Z,25.10
2022-10-26T03:28:41.421Z,25.60
2022-10-26T03:31:08.391Z,24.90
2022-10-26T03:33:35.171Z,25.80
2022-10-26T03:36:01.977Z,27.60
2022-10-26T03:38:28.735Z,26.20
2022-10-26T03:40:55.648Z,26.30
2022-10-26T03:43:22.796Z,28.10
2022-10-26T03:45:49.718Z,27.10
2022-10-26T03:48:16.475Z,26.00
2022-10-26T03:50:43.252Z,26.60
2022-10-26T03:53:10.438Z,27.40
2022-10-26T03:55:37.318Z,26.90
2022-10-26T03:58:04.396Z,28.00
2022-10-26T04:00:31.105Z,25.80
2022-10-26T04:02:59.685Z,28.70
2022-10-26T04:05:28.640Z,27.00
2022-10-26T04:08:00.126Z,27.00
2022-10-26T04:10:27.800Z,27.90
2022-10-26T04:12:55.386Z,28.20
2022-10-26T04:15:22.839Z,22.40
2022-10-26T04:17:58.842Z,21.70
2022-10-26T04:20:27.281Z,20.10
2022-10-26T04:23:05.231Z,21.00
2022-10-26T04:25:33.676Z,20.00
2022-10-26T04:28:02.141Z,22.00
2022-10-26T04:30:29.671Z,22.10
2022-10-26T04:32:56.542Z,21.40
2022-10-26T04:35:23.731Z,21.00
2022-10-26T04:37:50.743Z,21.20
2022-10-26T04:40:17.506Z,21.70
2022-10-26T04:42:45.746Z,20.30
2022-10-26T04:45:14.722Z,22.20
2022-10-26T04:47:41.969Z,20.20
2022-10-26T04:50:10.746Z,20.10
2022-10-26T04:52:37.985Z,20.80
2022-10-26T04:55:06.201Z,20.10
2022-10-26T04:57:36.224Z,22.30
2022-10-26T05:00:04.753Z,21.20
2022-10-26T05:02:31.568Z,23.30
2022-10-26T05:04:58.464Z,21.10
2022-10-26T05:07:25.286Z,21.40
2022-10-26T05:09:52.086Z,23.20
2022-10-26T05:12:19.211Z,23.00
2022-10-26T05:14:46.029Z,22.40
2022-10-26T05:17:12.890Z,22.40
2022-10-26T05:19:39.875Z,21.10
2022-10-26T05:22:06.772Z,24.80
2022-10-26T05:24:33.553Z,21.60
2022-10-26T05:27:00.720Z,23.70
2022-10-26T05:29:27.516Z,22.60
2022-10-26T05:31:54.267Z,24.10
2022-10-26T05:34:21.039Z,24.90
2022-10-26T05:36:47.880Z,22.80
2022-10-26T05:39:14.631Z,23.30
2022-10-26T05:41:41.405Z,23.80
2022-10-26T05:44:08.190Z,22.80
2022-10-26T05:46:35.005Z,23.20
2022-10-26T05:49:01.772Z,27.30
2022-10-26T05:51:28.638Z,23.50
2022-10-26T05:53:55.425Z,24.00
2022-10-26T05:56:37.281Z,24.30
2022-10-26T05:59:05.669Z,25.20
2022-10-26T06:02:11.745Z,23.60
2022-10-26T06:04:47.812Z,26.80
2022-10-26T06:07:20.566Z,25.00
2022-10-26T06:09:48.046Z,23.90
2022-10-26T06:12:18.508Z,23.30
2022-10-26T06:14:46.838Z,24.00
2022-10-26T06:17:31.313Z,24.60
2022-10-26T06:20:38.575Z,24.30
2022-10-26T06:23:16.947Z,27.10
2022-10-26T06:25:56.033Z,26.90
2022-10-26T06:28:49.956Z,25.80
2022-10-26T06:31:18.225Z,27.90
2022-10-26T06:33:45.481Z,27.60
2022-10-26T06:36:26.931Z,27.00
2022-10-26T06:39:02.254Z,27.80
2022-10-26T06:41:32.406Z,28.10
2022-10-26T06:43:59.691Z,28.10
2022-10-26T06:46:41.748Z,28.30
2022-10-26T06:49:23.163Z,28.00
2022-10-26T06:51:57.328Z,29.20
2022-10-26T06:54:45.451Z,31.30
2022-10-26T06:57:14.152Z,28.10
2022-10-26T06:59:44.413Z,28.20
2022-10-26T07:02:12.566Z,28.20
2022-10-26T07:04:39.455Z,28.90
2022-10-26T07:07:06.369Z,27.00
2022-10-26T07:09:33.178Z,27.80
2022-10-26T07:12:00.111Z,28.40
2022-10-26T07:14:26.902Z,28.30
2022-10-26T07:16:54.462Z,29.00
2022-10-26T07:19:21.215Z,28.80
2022-10-26T07:21:47.943Z,29.10
2022-10-26T07:24:14.706Z,29.00
2022-10-26T07:26:41.517Z,29.00
2022-10-26T07:29:08.269Z,27.30
2022-10-26T07:31:35.085Z,28.00
2022-10-26T07:34:02.548Z,28.80
2022-10-26T07:36:29.756Z,29.40
2022-10-26T07:38:56.481Z,28.20
2022-10-26T07:41:23.284Z,28.40
2022-10-26T07:43:50.751Z,29.50
2022-10-26T07:46:18.406Z,28.40
2022-10-26T07:51:16.975Z,28.10
2022-10-26T07:53:43.810Z,27.10
2022-10-26T07:56:11.027Z,28.30
2022-10-26T07:58:38.170Z,26.80
2022-10-26T08:01:10.599Z,27.10
2022-10-26T08:03:37.497Z,28.80
2022-10-26T08:06:05.095Z,28.00
2022-10-26T08:08:32.581Z,28.40
2022-10-26T08:10:59.600Z,28.80
2022-10-26T08:13:26.569Z,28.60
2022-10-26T08:16:00.299Z,26.40
2022-10-26T08:18:27.390Z,28.60
2022-10-26T08:21:01.777Z,29.60
2022-10-26T08:23:36.981Z,30.50
2022-10-26T08:26:04.458Z,30.40
2022-10-26T08:28:31.273Z,31.40
2022-10-26T08:30:58.489Z,32.50
2022-10-26T08:33:25.400Z,35.10
2022-10-26T08:35:59.973Z,34.50
2022-10-26T08:38:27.103Z,32.00
2022-10-26T08:40:55.868Z,37.60
2022-10-26T08:43:40.839Z,37.10
2022-10-26T08:46:19.248Z,36.30
2022-10-26T08:49:00.617Z,38.40
2022-10-26T08:51:35.433Z,39.40
2022-10-26T08:54:16.783Z,41.20
2022-10-26T08:56:54.344Z,42.70
2022-10-26T08:59:47.911Z,42.00
2022-10-26T09:02:16.979Z,40.10
2022-10-26T09:04:44.345Z,40.50
2022-10-26T09:07:42.933Z,39.40
2022-10-26T09:13:17.251Z,43.20
2022-10-26T09:15:52.850Z,43.40
2022-10-26T09:18:30.693Z,44.90
2022-10-26T09:21:15.713Z,42.80
2022-10-26T09:24:01.257Z,44.50
2022-10-26T09:26:45.195Z,44.80
2022-10-26T09:29:14.269Z,43.90
2022-10-26T09:31:44.524Z,44.50
2022-10-26T09:34:25.351Z,45.80
2022-10-26T09:36:56.093Z,44.20
2022-10-26T09:39:33.641Z,42.50
2022-10-26T09:42:26.020Z,43.10
2022-10-26T09:45:00.416Z,45.80
2022-10-26T09:47:39.676Z,45.10
2022-10-26T09:50:33.311Z,45.20
2022-10-26T09:52:59.977Z,46.40
2022-10-26T09:55:27.733Z,44.30
2022-10-26T09:57:57.622Z,45.90
2022-10-26T10:00:26.090Z,46.60
2022-10-26T10:02:55.209Z,46.60
2022-10-26T10:05:32.560Z,46.00
2022-10-26T10:08:19.158Z,46.90
2022-10-26T10:11:06.633Z,47.50
2022-10-26T10:13:36.373Z,47.70
2022-10-26T10:16:10.403Z,46.70
2022-10-26T10:18:39.066Z,50.10
2022-10-26T10:21:07.023Z,49.70
2022-10-26T10:23:36.833Z,49.10
2022-10-26T10:26:08.708Z,49.10
2022-10-26T10:28:35.820Z,48.80
2022-10-26T10:31:05.669Z,47.90
2022-10-26T10:33:42.680Z,50.00
2022-10-26T10:36:15.739Z,49.10
2022-10-26T10:38:45.147Z,50.30
2022-10-26T10:41:36.746Z,48.10
2022-10-26T10:44:08.963Z,48.00
2022-10-26T10:46:37.695Z,46.60
2022-10-26T10:49:15.878Z,48.20
2022-10-26T10:51:44.073Z,51.80
2022-10-26T10:54:25.675Z,48.60
2022-10-26T10:56:55.505Z,48.00
2022-10-26T10:59:32.845Z,47.70
2022-10-26T11:02:20.660Z,49.20
2022-10-26T11:05:08.855Z,47.10
2022-10-26T11:07:47.908Z,46.70
2022-10-26T11:10:17.672Z,47.20
2022-10-26T11:12:51.726Z,49.20
2022-10-26T11:15:23.439Z,49.20
2022-10-26T11:18:15.848Z,46.70
2022-10-26T11:20:51.854Z,47.60
2022-10-26T11:23:43.916Z,47.50
2022-10-26T11:26:21.271Z,47.00
2022-10-26T11:28:58.543Z,47.60
2022-10-26T11:31:35.704Z,47.60
2022-10-26T11:34:13.005Z,47.00
2022-10-26T11:36:42.142Z,47.30
2022-10-26T11:39:31.763Z,47.10
2022-10-26T11:42:11.689Z,47.00
2022-10-26T11:44:52.731Z,47.60
2022-10-26T11:47:38.920Z,46.70
2022-10-26T11:50:23.001Z,44.90
2022-10-26T11:52:58.707Z,46.10
2022-10-26T11:55:25.913Z,45.50
2022-10-26T11:57:54.319Z,47.00
2022-10-26T12:00:22.366Z,45.50
2022-10-26T12:03:09.413Z,46.10
2022-10-26T12:05:51.189Z,46.30
2022-10-26T12:08:27.934Z,43.80
2022-10-26T12:11:36.813Z,46.80
2022-10-26T12:14:15.764Z,45.40
2022-10-26T12:16:52.463Z,45.90
2022-10-26T12:21:58.452Z,46.50
2022-10-26T12:24:35.575Z,45.50
2022-10-26T12:27:06.404Z,45.60
2022-10-26T12:29:47.797Z,47.50
2022-10-26T12:32:32.902Z,46.10
2022-10-26T12:35:02.126Z,46.80
2022-10-26T12:37:37.692Z,48.90
2022-10-26T12:40:42.899Z,46.80
2022-10-26T12:43:15.869Z,47.50
2022-10-26T12:45:45.135Z,47.70
2022-10-26T12:48:27.941Z,47.50
2022-10-26T12:51:24.679Z,49.50
2022-10-26T12:54:16.119Z,46.90
2022-10-26T12:57:00.472Z,46.90
2022-10-26T12:59:52.444Z,48.50
2022-10-26T13:02:28.042Z,47.20
2022-10-26T13:05:15.935Z,47.30
2022-10-26T13:07:43.004Z,49.00
2022-10-26T13:10:12.427Z,50.90
2022-10-26T13:12:52.504Z,49.80
2022-10-26T13:15:33.143Z,48.10
2022-10-26T13:18:08.683Z,47.90
2022-10-26T13:20:37.866Z,46.90
2022-10-26T13:23:16.881Z,47.10
2022-10-26T13:26:21.543Z,47.70
2022-10-26T13:28:54.205Z,47.60
2022-10-26T13:31:32.785Z,46.20
2022-10-26T13:34:09.989Z,46.60
2022-10-26T13:36:39.027Z,47.00
2022-10-26T13:39:28.824Z,48.80
2022-10-26T13:41:58.612Z,47.00
2022-10-26T13:44:34.476Z,48.50
2022-10-26T13:47:17.803Z,48.40
2022-10-26T13:49:45.931Z,47.80
2022-10-26T13:52:18.013Z,51.00
2022-10-26T13:55:09.608Z,48.50
2022-10-26T13:57:42.237Z,50.80
2022-10-26T14:00:20.406Z,53.70
2022-10-26T14:02:48.663Z,53.10
2022-10-26T14:05:18.639Z,53.00
2022-10-26T14:08:00.043Z,53.10
2022-10-26T14:10:40.367Z,53.20
2022-10-26T14:13:09.360Z,53.00
2022-10-26T14:15:36.740Z,55.20
2022-10-26T14:18:04.491Z,56.90
2022-10-26T14:20:32.128Z,58.20
2022-10-26T14:22:59.060Z,59.20
2022-10-26T14:25:41.784Z,57.80
2022-10-26T14:28:47.620Z,61.60
2022-10-26T14:31:22.544Z,60.00
2022-10-26T14:33:49.416Z,59.50
2022-10-26T14:36:17.406Z,59.80
2022-10-26T14:38:47.678Z,58.40
2022-10-26T14:41:17.528Z,57.30
2022-10-26T14:43:45.725Z,58.20
2022-10-26T14:46:21.579Z,58.40
2022-10-26T14:49:06.324Z,58.20
2022-10-26T14:51:36.259Z,58.10
2022-10-26T14:54:04.217Z,57.20
2022-10-26T14:56:37.164Z,58.60
2022-10-26T14:59:31.362Z,57.90
2022-10-26T15:02:19.649Z,62.70
2022-10-26T15:05:15.940Z,60.00
2022-10-26T15:07:44.623Z,61.50
2022-10-26T15:10:36.332Z,58.60
2022-10-26T15:13:18.106Z,59.20
2022-10-26T15:15:48.531Z,58.40
2022-10-26T15:18:32.891Z,59.20
2022-10-26T15:20:59.937Z,59.80
2022-10-26T15:23:29.361Z,58.10
2022-10-26T15:26:02.626Z,57.60
2022-10-26T15:28:37.039Z,58.40
2022-10-26T15:31:24.504Z,58.50
2022-10-26T15:33:51.239Z,57.00
2022-10-26T15:36:24.184Z,57.10
2022-10-26T15:38:51.844Z,55.90
2022-10-26T15:41:29.659Z,57.00
2022-10-26T15:44:02.885Z,57.70
2022-10-26T15:46:34.873Z,54.90
2022-10-26T15:49:04.198Z,55.90
2022-10-26T15:51:31.239Z,57.50
2022-10-26T15:53:58.757Z,52.50
2022-10-26T15:56:26.616Z,57.50
2022-10-26T15:58:54.889Z,54.80
2022-10-26T16:01:26.710Z,55.00
2022-10-26T16:03:53.850Z,54.80
2022-10-26T16:06:47.129Z,55.00
2022-10-26T16:09:16.795Z,53.70
2022-10-26T16:11:44.552Z,53.40
2022-10-26T16:14:13.010Z,54.80
2022-10-26T16:16:41.436Z,55.80
2022-10-26T16:19:29.822Z,56.50
2022-10-26T16:21:57.623Z,53.70
2022-10-26T16:24:24.592Z,55.30
2022-10-26T16:26:53.381Z,58.60
2022-10-26T16:29:20.708Z,63.00
2022-10-26T16:31:48.235Z,62.10
2022-10-26T16:34:14.999Z,62.20
2022-10-26T16:36:41.848Z,63.50
2022-10-26T16:39:12.115Z,64.80
2022-10-26T16:41:38.893Z,64.20
2022-10-26T16:44:05.696Z,63.60
2022-10-26T16:46:32.681Z,63.50
2022-10-26T16:48:59.885Z,64.10
2022-10-26T16:51:28.254Z,63.10
2022-10-26T16:53:56.838Z,63.80
2022-10-26T16:56:27.060Z,62.80
2022-10-26T16:58:54.617Z,61.60
2022-10-26T17:01:21.845Z,61.50
2022-10-26T17:03:50.504Z,59.10
2022-10-26T17:06:18.188Z,59.90
2022-10-26T17:08:45.127Z,58.40
2022-10-26T17:11:14.758Z,57.80
2022-10-26T17:13:42.223Z,59.60
2022-10-26T17:16:17.605Z,59.90
2022-10-26T17:18:45.557Z,57.20
2022-10-26T17:21:13.964Z,56.60
2022-10-26T17:23:41.095Z,59.00
2022-10-26T17:26:09.954Z,60.00
2022-10-26T17:28:36.906Z,58.60
2022-10-26T17:31:04.890Z,58.00
2022-10-26T17:33:35.716Z,57.40
2022-10-26T17:36:04.136Z,59.50
2022-10-26T17:38:36.459Z,60.10
2022-10-26T17:41:08.666Z,57.80
2022-10-26T17:43:37.829Z,61.00
2022-10-26T17:46:10.485Z,60.20
2022-10-26T17:48:37.390Z,62.00
2022-10-26T17:51:06.667Z,59.80
2022-10-26T17:53:33.552Z,56.50
2022-10-26T17:56:05.952Z,59.70
2022-10-26T17:58:33.824Z,59.00
2022-10-26T18:01:02.619Z,59.30
2022-10-26T18:03:29.920Z,57.70
2022-10-26T18:05:57.112Z,61.40
2022-10-26T18:08:24.165Z,57.90
2022-10-26T18:10:53.431Z,59.90
2022-10-26T18:13:20.199Z,59.60
2022-10-26T18:15:47.355Z,58.20
2022-10-26T18:18:14.174Z,62.00
2022-10-26T18:20:40.916Z,60.40
2022-10-26T18:23:07.625Z,60.00
2022-10-26T18:25:36.059Z,57.80
2022-10-26T18:28:03.371Z,57.10
2022-10-26T18:30:30.206Z,58.90
2022-10-26T18:32:56.915Z,58.30
2022-10-26T18:35:24.225Z,58.10
2022-10-26T18:37:51.287Z,56.70
2022-10-26T18:40:18.291Z,58.20
2022-10-26T18:42:45.055Z,60.10
2022-10-26T18:45:11.943Z,59.80
2022-10-26T18:47:38.729Z,57.50
2022-10-26T18:50:05.910Z,59.60
2022-10-26T18:52:32.774Z,58.00
2022-10-26T18:54:59.667Z,58.70
2022-10-26T18:57:28.768Z,58.20
2022-10-26T18:59:55.580Z,58.20
2022-10-26T19:02:22.953Z,57.10
2022-10-26T19:04:51.544Z,59.30
2022-10-26T19:07:18.831Z,58.80
2022-10-26T19:09:45.545Z,59.00
2022-10-26T19:12:12.304Z,60.10
2022-10-26T19:14:39.099Z,59.30
2022-10-26T19:17:05.939Z,59.10
2022-10-26T19:19:32.784Z,57.90
2022-10-26T19:22:00.942Z,56.90
2022-10-26T19:24:27.751Z,57.80
2022-10-26T19:26:54.663Z,56.40
2022-10-26T19:29:21.535Z,55.80
2022-10-26T19:31:51.741Z,54.60
2022-10-26T19:34:19.172Z,54.00
2022-10-26T19:36:47.183Z,54.80
2022-10-26T19:39:17.984Z,54.80
2022-10-26T19:41:45.974Z,52.90
2022-10-26T19:44:14.750Z,53.00
2022-10-26T19:46:43.156Z,52.90
2022-10-26T19:49:09.949Z,53.10
2022-10-26T19:51:36.718Z,53.40
2022-10-26T19:54:05.923Z,53.30
2022-10-26T19:56:34.045Z,50.80
2022-10-26T19:59:01.543Z,48.80
2022-10-26T20:01:28.841Z,48.60
2022-10-26T20:03:55.773Z,47.60
2022-10-26T20:06:22.836Z,48.70
2022-10-26T20:08:50.141Z,51.00
2022-10-26T20:11:18.103Z,50.10
2022-10-26T20:13:46.261Z,48.70
2022-10-26T20:16:13.847Z,48.80
2022-10-26T20:18:44.119Z,48.60
2022-10-26T20:21:16.607Z,51.20
2022-10-26T20:23:44.278Z,50.80
2022-10-26T20:26:18.240Z,48.10
2022-10-26T20:28:47.720Z,51.90
2022-10-26T20:31:14.917Z,51.00
2022-10-26T20:33:41.808Z,51.40
2022-10-26T20:36:08.802Z,49.80
2022-10-26T20:38:35.983Z,49.70
2022-10-26T20:41:06.254Z,49.60
2022-10-26T20:43:38.916Z,49.10
2022-10-26T20:46:06.948Z,49.00
2022-10-26T20:48:34.189Z,51.00
2022-10-26T20:51:26.293Z,46.80
2022-10-26T20:54:11.746Z,48.60
2022-10-26T20:56:43.593Z,48.00
2022-10-26T20:59:26.726Z,47.20
2022-10-26T21:01:53.845Z,50.80
2022-10-26T21:04:20.592Z,50.70
2022-10-26T21:06:47.390Z,50.80
2022-10-26T21:09:14.337Z,51.50
2022-10-26T21:11:41.156Z,51.80
2022-10-26T21:14:07.955Z,50.00
2022-10-26T21:16:34.908Z,49.80
2022-10-26T21:19:04.801Z,50.70
2022-10-26T21:21:31.734Z,52.70
2022-10-26T21:23:58.583Z,49.20
2022-10-26T21:26:25.384Z,49.80
2022-10-26T21:28:52.121Z,48.30
2022-10-26T21:31:21.156Z,49.70
2022-10-26T21:33:48.288Z,51.00
2022-10-26T21:36:15.793Z,49.30
2022-10-26T21:38:44.688Z,49.40
2022-10-26T21:41:17.154Z,50.30
2022-10-26T21:43:46.269Z,51.60
2022-10-26T21:46:13.661Z,48.90
2022-10-26T21:48:43.620Z,50.20
2022-10-26T21:51:20.384Z,48.10
2022-10-26T21:53:48.296Z,49.80
2022-10-26T21:56:20.085Z,48.30
2022-10-26T21:58:47.792Z,49.70
2022-10-26T22:01:20.623Z,49.50
2022-10-26T22:03:48.354Z,49.60
2022-10-26T22:08:51.975Z,49.20
2022-10-26T22:11:21.897Z,48.10
2022-10-26T22:13:50.055Z,47.90
2022-10-26T22:16:20.551Z,48.70
2022-10-26T22:18:49.266Z,47.60
2022-10-26T22:21:17.463Z,48.30
2022-10-26T22:23:45.253Z,49.60
2022-10-26T22:26:23.248Z,48.60
2022-10-26T22:28:52.555Z,47.20
2022-10-26T22:31:28.054Z,48.20
2022-10-26T22:33:57.023Z,48.40
2022-10-26T22:36:24.893Z,46.70
2022-10-26T22:38:52.228Z,46.90
2022-10-26T22:41:20.264Z,48.00
2022-10-26T22:43:47.169Z,47.20
2022-10-26T22:46:22.083Z,46.50
2022-10-26T22:48:56.896Z,48.20
2022-10-26T22:51:25.252Z,48.30
2022-10-26T22:53:56.624Z,46.90
2022-10-26T22:58:57.236Z,47.40
2022-10-26T23:01:26.416Z,48.90
2022-10-26T23:03:56.137Z,50.60
2022-10-26T23:06:24.826Z,48.10
2022-10-26T23:08:52.111Z,48.50
2022-10-26T23:11:20.126Z,48.80
2022-10-26T23:13:47.739Z,48.10
2022-10-26T23:16:20.402Z,47.50
2022-10-26T23:18:48.438Z,46.70
2022-10-26T23:21:17.180Z,47.50
2022-10-26T23:23:44.129Z,46.90
2022-10-26T23:26:13.537Z,49.40
2022-10-26T23:28:41.062Z,47.90
2022-10-26T23:31:08.524Z,47.60
2022-10-26T23:33:35.225Z,47.00
2022-10-26T23:36:02.106Z,47.50
2022-10-26T23:38:29.039Z,48.10
2022-10-26T23:40:58.615Z,47.10
2022-10-26T23:43:27.139Z,48.60
2022-10-26T23:45:55.270Z,49.10
2022-10-26T23:48:22.463Z,50.40
2022-10-26T23:50:50.956Z,48.40
2022-10-26T23:53:20.767Z,49.60
2022-10-26T23:55:48.206Z,47.50
2022-10-26T23:58:16.955Z,47.60
